Time;durP1;ratioP1;P1;durP2;ratioP2;P2;SDS_P1;SDS_P2;PMS_P1;PMS_P2;Temp;Humidity;BMP_temperature;BMP_pressure;BME280_temperature;BME280_humidity;BME280_pressure;Samples;Min_cycle;Max_cycle;Signal;HPM_P1;HPM_P2
2021/12/08 00:01:11;;;;;;;0.00;0.00;;;;;;;0.04;100.00;100193.41;10403776;28;20115;-65
2021/12/08 00:06:12;;;;;;;0.00;0.00;;;;;;;0.06;100.00;100181.88;10383491;28;20026;-65
2021/12/08 00:16:33;;;;;;;0.00;0.00;;;;;;;0.09;100.00;100178.19;10333345;28;20081;-64
2021/12/08 00:21:34;;;;;;;0.00;0.00;;;;;;;0.08;100.00;100193.06;10356374;28;20059;-65
2021/12/08 00:26:35;;;;;;;0.10;0.10;;;;;;;0.09;100.00;100188.66;10348726;28;20041;-65
2021/12/08 00:31:36;;;;;;;0.10;0.10;;;;;;;0.14;100.00;100187.38;10361506;28;20032;-65
2021/12/08 00:36:43;;;;;;;0.10;0.10;;;;;;;0.15;100.00;100175.16;10347746;28;20105;-64
2021/12/08 00:41:44;;;;;;;0.10;0.10;;;;;;;0.19;100.00;100180.03;10352667;28;20469;-65
2021/12/08 00:46:44;;;;;;;0.03;0.03;;;;;;;0.21;100.00;100193.88;10352138;28;20021;-65
2021/12/08 00:51:44;;;;;;;0.00;0.00;;;;;;;0.28;100.00;100185.59;10346245;28;20049;-65
2021/12/08 00:56:45;;;;;;;0.00;0.00;;;;;;;0.28;100.00;100181.19;10345151;28;20282;-64
2021/12/08 01:01:45;;;;;;;0.10;0.10;;;;;;;0.29;100.00;100159.28;10354373;28;20030;-66
2021/12/08 01:06:45;;;;;;;0.10;0.10;;;;;;;0.30;100.00;100154.88;10351147;28;20262;-65
2021/12/08 01:11:46;;;;;;;0.00;0.00;;;;;;;0.35;100.00;100150.13;10363137;28;20029;-65
2021/12/08 01:16:47;;;;;;;0.10;0.10;;;;;;;0.36;100.00;100131.69;10351897;28;20045;-64
2021/12/08 01:21:47;;;;;;;0.10;0.10;;;;;;;0.38;100.00;100118.50;10352503;28;20032;-65
2021/12/08 01:26:48;;;;;;;0.03;0.03;;;;;;;0.38;100.00;100108.84;10353563;28;20045;-65
2021/12/08 01:31:49;;;;;;;0.00;0.00;;;;;;;0.43;100.00;100084.91;10323888;28;20035;-65
2021/12/08 01:36:50;;;;;;;0.05;0.05;;;;;;;0.42;100.00;100065.75;10356261;28;20026;-65
2021/12/08 01:41:52;;;;;;;0.10;0.10;;;;;;;0.49;100.00;100070.53;10348534;28;20117;-65
2021/12/08 01:46:54;;;;;;;0.10;0.10;;;;;;;0.55;100.00;100049.13;10348341;28;20027;-65
2021/12/08 01:51:54;;;;;;;0.05;0.05;;;;;;;0.55;100.00;100067.47;10351529;28;20022;-65
2021/12/08 01:56:56;;;;;;;0.00;0.00;;;;;;;0.59;100.00;100034.84;10356450;28;20021;-65
2021/12/08 02:01:57;;;;;;;0.00;0.00;;;;;;;0.62;99.98;100017.09;10353169;28;20026;-65
2021/12/08 02:07:00;;;;;;;0.00;0.00;;;;;;;0.64;100.00;100015.22;10348565;28;20022;-65
2021/12/08 02:12:01;;;;;;;0.10;0.10;;;;;;;0.74;98.81;99997.00;10358896;28;20026;-65
2021/12/08 02:17:01;;;;;;;0.00;0.00;;;;;;;0.80;98.73;100004.38;10348801;28;20022;-65
2021/12/08 02:22:02;;;;;;;0.10;0.10;;;;;;;0.81;99.34;99994.72;10347481;28;20072;-65
2021/12/08 02:27:02;;;;;;;0.10;0.10;;;;;;;0.81;98.16;99971.13;10348402;28;20029;-65
2021/12/08 02:32:28;;;;;;;0.10;0.10;;;;;;;0.84;98.36;99968.28;10348301;28;20037;-65
2021/12/08 02:48:07;;;;;;;0.00;0.00;;;;;;;0.89;98.03;99948.63;10343827;28;20022;-65
2021/12/08 02:53:10;;;;;;;0.10;0.10;;;;;;;0.92;97.91;99938.84;10346888;28;20015;-65
2021/12/08 02:58:10;;;;;;;0.00;0.00;;;;;;;0.98;98.03;99943.63;10348938;28;20022;-65
2021/12/08 03:03:11;;;;;;;0.03;0.03;;;;;;;0.97;97.72;99920.97;10349264;28;20030;-65
2021/12/08 03:08:13;;;;;;;0.00;0.00;;;;;;;1.00;97.72;99923.38;10353648;28;20117;-65
2021/12/08 03:13:13;;;;;;;0.10;0.10;;;;;;;1.01;97.50;99927.66;10357037;28;20034;-65
2021/12/08 03:18:13;;;;;;;0.10;0.10;;;;;;;1.03;97.28;99928.38;10348574;28;20544;-65
2021/12/08 03:23:23;;;;;;;0.10;0.10;;;;;;;1.07;96.40;99921.91;10359567;28;20022;-66
2021/12/08 03:28:28;;;;;;;0.00;0.00;;;;;;;1.11;96.42;99912.88;10356265;28;20257;-65
2021/12/08 03:33:28;;;;;;;0.00;0.00;;;;;;;1.11;95.81;99924.19;10367847;28;20108;-65
2021/12/08 03:38:30;;;;;;;0.00;0.00;;;;;;;1.14;95.72;99928.38;10337190;28;20133;-66
2021/12/08 03:43:30;;;;;;;0.00;0.00;;;;;;;1.16;95.23;99936.94;10348442;28;20038;-66
2021/12/08 03:48:46;;;;;;;0.10;0.10;;;;;;;1.22;95.47;99925.97;10344791;28;20026;-65
2021/12/08 03:53:47;;;;;;;0.00;0.00;;;;;;;1.26;95.20;99943.13;10330198;28;20022;-65
2021/12/08 03:58:47;;;;;;;0.03;0.03;;;;;;;1.30;94.39;99944.53;10359710;28;20036;-65
2021/12/08 04:03:50;;;;;;;0.00;0.00;;;;;;;1.30;95.27;99936.69;10339487;28;20108;-66
2021/12/08 04:08:56;;;;;;;0.00;0.00;;;;;;;1.15;96.60;99927.41;10366093;28;20014;-67
2021/12/08 04:14:09;;;;;;;0.00;0.00;;;;;;;0.89;99.66;99934.69;10331700;28;20038;-68
2021/12/08 04:19:10;;;;;;;0.03;0.03;;;;;;;0.68;100.00;99922.28;10334432;28;20101;-67
2021/12/08 04:24:12;;;;;;;0.00;0.00;;;;;;;0.53;100.00;99925.25;10346584;28;20026;-68
2021/12/08 04:29:14;;;;;;;0.00;0.00;;;;;;;0.43;100.00;99914.63;10364875;28;20503;-66
2021/12/08 04:34:22;;;;;;;0.00;0.00;;;;;;;0.37;100.00;99905.44;10338106;28;20108;-67
2021/12/08 04:39:40;;;;;;;0.10;0.10;;;;;;;0.33;100.00;99900.56;10352960;28;20030;-67
2021/12/08 04:44:49;;;;;;;0.05;0.05;;;;;;;0.28;100.00;99916.63;10356446;28;20029;-68
2021/12/08 04:50:23;;;;;;;0.00;0.00;;;;;;;0.22;100.00;99914.47;10338001;28;20034;-67
2021/12/08 05:11:04;;;;;;;0.00;0.00;;;;;;;0.09;100.00;99932.03;10364780;28;20026;-67
2021/12/08 05:16:06;;;;;;;0.10;0.10;;;;;;;0.04;100.00;99924.53;10366203;28;20022;-67
2021/12/08 05:21:36;;;;;;;0.10;0.10;;;;;;;0.03;100.00;99940.34;10371596;28;20052;-67
2021/12/08 05:26:44;;;;;;;0.05;0.05;;;;;;;0.00;100.00;99941.44;10367907;28;20022;-68
2021/12/08 05:31:46;;;;;;;0.00;0.00;;;;;;;-0.07;100.00;99933.16;10331624;28;20156;-67
2021/12/08 05:36:48;;;;;;;0.00;0.00;;;;;;;-0.08;100.00;99938.53;10362333;28;20065;-67
2021/12/08 05:41:53;;;;;;;0.05;0.05;;;;;;;-0.10;100.00;99936.00;10347906;28;20022;-67
2021/12/08 05:46:54;;;;;;;;;;;;;;;-0.15;100.00;99942.53;10348288;28;20109;-66
2021/12/08 05:51:56;;;;;;;0.00;0.00;;;;;;;-0.19;100.00;99947.16;10353581;28;19917;-67
2021/12/08 05:56:58;;;;;;;0.10;0.10;;;;;;;-0.23;100.00;99935.25;10349840;28;20473;-67
2021/12/08 06:02:03;;;;;;;0.00;0.00;;;;;;;-0.22;100.00;99934.31;10327183;28;20149;-67
2021/12/08 06:07:06;;;;;;;0.00;0.00;;;;;;;-0.17;100.00;99937.44;10356750;28;20041;-67
2021/12/08 06:12:09;;;;;;;0.10;0.10;;;;;;;-0.07;100.00;99948.03;10336862;28;20026;-67
2021/12/08 06:17:13;;;;;;;0.00;0.00;;;;;;;0.01;100.00;99950.94;10350279;28;20390;-66
2021/12/08 06:22:17;;;;;;;0.13;0.13;;;;;;;0.13;100.00;99962.28;10341557;28;20018;-67
2021/12/08 06:27:18;;;;;;;0.00;0.00;;;;;;;0.29;100.00;99956.72;10353095;28;20060;-67
2021/12/08 06:32:19;;;;;;;0.10;0.10;;;;;;;0.34;100.00;99950.19;10348505;28;20022;-67
2021/12/08 06:37:25;;;;;;;0.00;0.00;;;;;;;0.37;100.00;99959.63;10354925;28;20029;-68
2021/12/08 06:42:30;;;;;;;0.00;0.00;;;;;;;0.29;100.00;99967.22;10365491;28;20021;-66
2021/12/08 06:47:31;;;;;;;0.00;0.00;;;;;;;0.22;100.00;99959.00;10365255;28;20018;-66
2021/12/08 06:52:36;;;;;;;0.00;0.00;;;;;;;0.19;100.00;99974.94;10364456;28;20069;-66
2021/12/08 06:57:45;;;;;;;0.10;0.10;;;;;;;0.18;100.00;99975.88;10336087;28;20175;-68
2021/12/08 07:07:46;;;;;;;0.10;0.10;;;;;;;0.14;100.00;99962.16;10363165;28;20109;-67
2021/12/08 07:12:51;;;;;;;0.10;0.10;;;;;;;0.18;100.00;99976.72;10364669;28;20074;-67
2021/12/08 07:17:57;;;;;;;0.00;0.00;;;;;;;0.26;100.00;99975.31;10349769;28;20141;-67
2021/12/08 07:22:58;;;;;;;0.00;0.00;;;;;;;0.28;100.00;99974.25;10351680;28;20026;-68
2021/12/08 07:28:00;;;;;;;0.10;0.10;;;;;;;0.33;100.00;99979.16;10362218;28;20018;-68
2021/12/08 07:33:00;;;;;;;0.10;0.10;;;;;;;0.34;100.00;99971.16;10359011;28;20368;-68
2021/12/08 07:38:02;;;;;;;0.10;0.10;;;;;;;0.42;100.00;99976.66;10366755;28;20032;-67
2021/12/08 07:43:08;;;;;;;0.10;0.10;;;;;;;0.47;100.00;99991.19;10358244;28;20105;-67
2021/12/08 07:48:13;;;;;;;0.00;0.00;;;;;;;0.48;100.00;99975.38;10348156;28;20097;-67
2021/12/08 07:53:15;;;;;;;;;;;;;;;0.53;100.00;99985.53;10402629;23;20384;-69
2021/12/08 07:58:18;;;;;;;0.00;0.00;;;;;;;0.56;100.00;99988.75;10384583;28;19914;-69
2021/12/08 08:03:20;;;;;;;0.00;0.00;;;;;;;0.61;100.00;99985.75;10369790;28;20049;-69
2021/12/08 08:08:25;;;;;;;0.00;0.00;;;;;;;0.64;100.00;99982.91;10369325;28;20087;-69
2021/12/08 08:13:27;;;;;;;0.10;0.10;;;;;;;0.66;100.00;100001.97;10364520;28;20037;-69
2021/12/08 08:18:29;;;;;;;0.10;0.10;;;;;;;0.69;100.00;99996.50;10369784;28;20030;-69
2021/12/08 08:23:31;;;;;;;0.15;0.15;;;;;;;0.74;100.00;100006.66;10370791;28;20037;-69
2021/12/08 08:28:32;;;;;;;0.00;0.00;;;;;;;0.77;100.00;100020.34;10369456;28;20026;-69
2021/12/08 08:33:34;;;;;;;0.00;0.00;;;;;;;0.81;100.00;100013.91;10369787;28;20022;-69
2021/12/08 08:38:39;;;;;;;0.00;0.00;;;;;;;0.89;100.00;100023.81;10368798;28;20434;-69
2021/12/08 08:43:39;;;;;;;0.10;0.10;;;;;;;0.93;100.00;100034.91;10369623;28;20140;-69
2021/12/08 08:48:48;;;;;;;0.08;0.08;;;;;;;1.04;100.00;100034.94;10368916;28;20421;-69
2021/12/08 08:53:51;;;;;;;0.00;0.00;;;;;;;1.11;100.00;100021.25;10369189;28;20026;-69
2021/12/08 08:58:57;;;;;;;0.00;0.00;;;;;;;1.18;100.00;100023.38;10368650;28;20026;-68
2021/12/08 09:04:03;;;;;;;0.00;0.00;;;;;;;1.21;100.00;100026.59;10368635;28;20040;-68
2021/12/08 09:09:11;;;;;;;0.00;0.00;;;;;;;1.24;100.00;100028.97;10350677;28;20018;-68
2021/12/08 09:14:20;;;;;;;0.00;0.00;;;;;;;1.29;100.00;100026.84;10350590;28;20084;-68
2021/12/08 09:19:26;;;;;;;0.00;0.00;;;;;;;1.37;100.00;100042.00;10367893;28;20049;-68
2021/12/08 09:24:51;;;;;;;0.00;0.00;;;;;;;1.46;100.00;100043.06;10350433;28;20125;-68
2021/12/08 09:29:56;;;;;;;0.00;0.00;;;;;;;1.50;100.00;100047.13;10367739;28;20112;-68
2021/12/08 09:35:03;;;;;;;0.00;0.00;;;;;;;1.50;100.00;100052.38;10367603;28;20110;-69
2021/12/08 09:40:13;;;;;;;0.00;0.00;;;;;;;1.51;100.00;100049.63;10367791;28;20033;-68
2021/12/08 09:45:25;;;;;;;0.00;0.00;;;;;;;1.54;100.00;100069.53;10363120;28;20053;-68
2021/12/08 09:50:25;;;;;;;0.00;0.00;;;;;;;1.55;100.00;100072.06;10364531;28;20534;-67
2021/12/08 09:55:25;;;;;;;0.00;0.00;;;;;;;1.58;100.00;100060.47;10366343;28;20087;-69
2021/12/08 10:00:35;;;;;;;0.00;0.00;;;;;;;1.63;100.00;100054.84;10366279;28;20030;-67
2021/12/08 10:05:36;;;;;;;0.00;0.00;;;;;;;1.66;100.00;100055.47;10366128;28;20014;-68
2021/12/08 10:10:41;;;;;;;0.00;0.00;;;;;;;1.74;100.00;100063.56;10348460;28;20032;-68
2021/12/08 10:15:42;;;;;;;0.00;0.00;;;;;;;1.82;100.00;100052.44;10365937;28;20061;-68
2021/12/08 10:20:46;;;;;;;0.00;0.00;;;;;;;1.92;100.00;100042.03;10364418;28;20144;-68
2021/12/08 10:25:57;;;;;;;0.00;0.00;;;;;;;2.03;100.00;100042.00;10360341;28;20041;-69
2021/12/08 10:31:05;;;;;;;0.00;0.00;;;;;;;2.12;100.00;100053.56;10348201;28;20484;-68
2021/12/08 10:36:20;;;;;;;0.00;0.00;;;;;;;2.14;100.00;100049.03;10362928;28;20467;-68
2021/12/08 10:41:20;;;;;;;;;;;;;;;2.10;100.00;100056.34;10365744;28;20104;-68
2021/12/08 10:46:33;;;;;;;0.00;0.00;;;;;;;2.09;100.00;100049.41;10365345;28;19991;-68
2021/12/08 10:57:24;;;;;;;0.00;0.00;;;;;;;2.02;100.00;100051.69;10365104;28;20030;-69
2021/12/08 11:02:55;;;;;;;0.00;0.00;;;;;;;2.03;100.00;100049.91;10365550;28;20037;-69
2021/12/08 11:08:03;;;;;;;0.00;0.00;;;;;;;2.04;100.00;100051.59;10343620;28;20038;-69
2021/12/08 11:13:05;;;;;;;0.00;0.00;;;;;;;2.09;100.00;100059.91;10347543;28;20121;-69
2021/12/08 11:18:17;;;;;;;0.00;0.00;;;;;;;2.15;100.00;100058.59;10364915;28;20093;-69
2021/12/08 11:23:46;;;;;;;0.00;0.00;;;;;;;2.21;100.00;100050.19;10365987;28;20049;-69
2021/12/08 11:29:07;;;;;;;0.00;0.00;;;;;;;2.29;100.00;100057.47;10406327;28;20123;-69
2021/12/08 11:34:25;;;;;;;0.10;0.10;;;;;;;2.37;100.00;100055.06;10357697;28;20018;-69
2021/12/08 11:39:36;;;;;;;0.00;0.00;;;;;;;2.46;100.00;100067.44;10400169;28;20022;-69
2021/12/08 11:44:39;;;;;;;0.00;0.00;;;;;;;2.49;100.00;100069.81;10411603;28;20029;-69
2021/12/08 11:49:47;;;;;;;0.00;0.00;;;;;;;2.49;100.00;100065.38;10353367;28;20049;-69
2021/12/08 11:55:00;;;;;;;0.00;0.00;;;;;;;2.53;100.00;100076.50;10370486;28;20061;-69
2021/12/08 12:00:14;;;;;;;0.08;0.08;;;;;;;2.56;100.00;100060.50;10370112;28;20029;-69
2021/12/08 12:05:23;;;;;;;0.00;0.00;;;;;;;2.61;100.00;100078.50;10349020;28;20099;-69
2021/12/08 12:10:27;;;;;;;0.00;0.00;;;;;;;2.63;100.00;100063.44;10384953;28;20038;-69
2021/12/08 12:15:27;;;;;;;0.00;0.00;;;;;;;2.59;100.00;100064.63;10389620;28;20076;-69
2021/12/08 12:20:47;;;;;;;0.00;0.00;;;;;;;2.54;100.00;100057.16;10379773;28;20072;-69
2021/12/08 12:26:06;;;;;;;0.00;0.00;;;;;;;2.49;100.00;100069.81;10408271;28;20457;-69
2021/12/08 12:31:46;;;;;;;0.00;0.00;;;;;;;2.46;100.00;100080.59;10371451;28;20030;-69
2021/12/08 12:36:47;;;;;;;0.00;0.00;;;;;;;2.46;100.00;100075.34;10397677;28;20115;-68
2021/12/08 12:42:13;;;;;;;0.00;0.00;;;;;;;2.46;100.00;100070.06;10409569;28;20403;-68
2021/12/08 12:47:23;;;;;;;0.00;0.00;;;;;;;2.53;100.00;100086.16;10387078;28;20028;-67
2021/12/08 12:52:35;;;;;;;0.00;0.00;;;;;;;2.56;100.00;100086.78;10388498;28;20060;-67
2021/12/08 12:58:03;;;;;;;0.00;0.00;;;;;;;2.60;100.00;100095.25;10376265;28;20434;-66
2021/12/08 13:03:05;;;;;;;0.00;0.00;;;;;;;2.58;100.00;100084.00;10353814;28;20026;-67
2021/12/08 13:08:05;;;;;;;0.00;0.00;;;;;;;2.53;100.00;100078.28;10354506;28;20573;-67
2021/12/08 13:13:10;;;;;;;0.00;0.00;;;;;;;2.48;100.00;100086.56;10376045;28;20100;-67
2021/12/08 13:18:13;;;;;;;0.00;0.00;;;;;;;2.45;100.00;100105.22;10369321;28;20030;-67
2021/12/08 13:23:17;;;;;;;0.00;0.00;;;;;;;2.43;100.00;100110.59;10404422;28;20392;-67
2021/12/08 13:29:04;;;;;;;0.00;0.00;;;;;;;2.36;100.00;100105.97;10393572;28;20021;-67
2021/12/08 13:34:05;;;;;;;0.00;0.00;;;;;;;2.23;100.00;100106.09;10390982;28;20420;-67
2021/12/08 13:39:14;;;;;;;0.00;0.00;;;;;;;2.15;100.00;100098.00;10368397;28;20040;-67
2021/12/08 13:44:23;;;;;;;0.00;0.00;;;;;;;2.10;100.00;100097.56;10376862;28;20120;-67
2021/12/08 13:49:26;;;;;;;0.00;0.00;;;;;;;2.07;100.00;100100.41;10372929;28;20096;-67
2021/12/08 13:54:32;;;;;;;0.00;0.00;;;;;;;2.08;100.00;100102.09;10415350;23;20492;-67
2021/12/08 13:59:55;;;;;;;0.00;0.00;;;;;;;2.10;100.00;100108.06;10392843;28;20032;-67
2021/12/08 14:05:08;;;;;;;0.10;0.10;;;;;;;2.08;100.00;100110.78;10410351;28;20021;-67
2021/12/08 14:10:11;;;;;;;0.00;0.00;;;;;;;2.03;100.00;100110.31;10438048;28;20031;-67
2021/12/08 14:15:26;;;;;;;0.00;0.00;;;;;;;1.94;100.00;100113.69;10450110;28;20024;-67
2021/12/08 14:20:32;;;;;;;0.00;0.00;;;;;;;1.92;100.00;100126.09;10449683;28;20415;-67
2021/12/08 14:25:37;;;;;;;0.10;0.10;;;;;;;1.86;100.00;100130.03;10439458;28;20025;-67
2021/12/08 14:30:45;;;;;;;0.00;0.00;;;;;;;1.81;100.00;100121.69;10449525;28;20021;-67
2021/12/08 14:36:00;;;;;;;0.00;0.00;;;;;;;1.80;100.00;100135.75;10433384;28;20039;-67
2021/12/08 14:41:01;;;;;;;0.00;0.00;;;;;;;1.77;100.00;100149.97;10419012;28;20104;-67
2021/12/08 14:46:16;;;;;;;0.00;0.00;;;;;;;1.72;100.00;100167.06;10407459;28;20572;-68
2021/12/08 14:51:22;;;;;;;0.00;0.00;;;;;;;1.65;100.00;100168.47;10407847;28;20029;-67
2021/12/08 14:56:22;;;;;;;0.00;0.00;;;;;;;1.61;100.00;100178.38;10422645;28;20112;-67
2021/12/08 15:01:23;;;;;;;0.00;0.00;;;;;;;1.56;100.00;100172.63;10432294;28;20107;-67
2021/12/08 15:06:25;;;;;;;0.00;0.00;;;;;;;1.50;100.00;100180.97;10456687;28;20057;-67
2021/12/08 15:11:28;;;;;;;0.00;0.00;;;;;;;1.46;100.00;100185.63;10438468;28;20023;-68
2021/12/08 15:16:29;;;;;;;0.00;0.00;;;;;;;1.43;100.00;100196.34;10456325;28;20013;-67
2021/12/08 15:21:38;;;;;;;0.00;0.00;;;;;;;1.35;100.00;100182.97;10437897;28;20017;-67
2021/12/08 15:26:38;;;;;;;0.00;0.00;;;;;;;1.30;100.00;100203.47;10426515;28;20431;-67
2021/12/08 15:31:39;;;;;;;0.05;0.05;;;;;;;1.26;100.00;100205.50;10396533;28;20021;-67
2021/12/08 15:36:39;;;;;;;0.00;0.00;;;;;;;1.21;100.00;100207.63;10414547;28;20025;-67
2021/12/08 15:41:46;;;;;;;0.00;0.00;;;;;;;1.18;100.00;100215.72;10413985;28;20333;-67
2021/12/08 15:46:49;;;;;;;0.08;0.08;;;;;;;1.17;100.00;100216.69;10398012;28;20128;-67
2021/12/08 15:51:51;;;;;;;0.00;0.00;;;;;;;1.16;100.00;100201.03;10454688;28;20021;-67
2021/12/08 15:56:58;;;;;;;0.00;0.00;;;;;;;1.19;100.00;100201.63;10431912;28;20400;-67
2021/12/08 16:02:01;;;;;;;0.00;0.00;;;;;;;1.17;100.00;100206.19;10414109;28;20388;-67
2021/12/08 16:07:03;;;;;;;0.00;0.00;;;;;;;1.18;100.00;100204.38;10450803;28;20021;-67
2021/12/08 16:12:03;;;;;;;0.00;0.00;;;;;;;1.16;100.00;100198.41;10454022;28;20056;-67
2021/12/08 16:17:25;;;;;;;0.00;0.00;;;;;;;1.15;100.00;100215.13;10453571;28;20102;-67
2021/12/08 16:22:26;;;;;;;0.00;0.00;;;;;;;1.15;100.00;100213.31;10451147;28;20028;-67
2021/12/08 16:27:28;;;;;;;0.00;0.00;;;;;;;1.17;100.00;100213.22;10423126;28;20029;-67
2021/12/08 16:32:29;;;;;;;0.00;0.00;;;;;;;1.18;100.00;100213.09;10429330;28;20021;-67
2021/12/08 16:37:29;;;;;;;0.00;0.00;;;;;;;1.17;100.00;100210.59;10442138;28;20422;-67
2021/12/08 16:47:52;;;;;;;0.00;0.00;;;;;;;1.19;100.00;100227.03;10454387;28;20022;-68
2021/12/08 16:52:54;;;;;;;0.00;0.00;;;;;;;1.20;100.00;100234.81;10453650;28;20032;-68
2021/12/08 16:57:57;;;;;;;0.00;0.00;;;;;;;1.22;100.00;100239.94;10453873;28;20067;-68
2021/12/08 17:02:57;;;;;;;0.00;0.00;;;;;;;1.25;100.00;100251.06;10453722;28;20076;-68
2021/12/08 17:07:58;;;;;;;0.00;0.00;;;;;;;1.25;100.00;100261.56;10453384;28;20021;-68
2021/12/08 17:12:58;;;;;;;0.00;0.00;;;;;;;1.28;100.00;100258.69;10453496;28;20263;-68
2021/12/08 17:18:02;;;;;;;0.00;0.00;;;;;;;1.30;100.00;100259.41;10452522;28;20267;-68
2021/12/08 17:23:02;;;;;;;0.08;0.08;;;;;;;1.30;100.00;100264.66;10440068;28;20167;-68
2021/12/08 17:28:03;;;;;;;0.08;0.08;;;;;;;1.31;100.00;100268.13;10410670;28;20101;-68
2021/12/08 17:33:04;;;;;;;0.00;0.00;;;;;;;1.31;100.00;100281.25;10411750;28;20025;-68
2021/12/08 17:38:05;;;;;;;0.00;0.00;;;;;;;1.31;100.00;100278.63;10410830;28;20049;-68
2021/12/08 17:43:06;;;;;;;0.10;0.10;;;;;;;1.30;100.00;100285.63;10411721;28;20103;-68
2021/12/08 17:48:07;;;;;;;0.00;0.00;;;;;;;1.31;100.00;100286.50;10410580;28;20025;-68
2021/12/08 17:53:08;;;;;;;0.00;0.00;;;;;;;1.28;100.00;100305.06;10424578;28;20029;-68
2021/12/08 17:58:08;;;;;;;0.00;0.00;;;;;;;1.26;100.00;100306.97;10444694;28;20092;-68
2021/12/08 18:03:09;;;;;;;0.00;0.00;;;;;;;1.26;100.00;100318.31;10450151;28;20577;-68
2021/12/08 18:08:09;;;;;;;0.00;0.00;;;;;;;1.26;100.00;100315.69;10449256;28;20259;-68
2021/12/08 18:13:09;;;;;;;0.10;0.10;;;;;;;1.25;100.00;100321.91;10450020;28;20031;-69
2021/12/08 18:18:11;;;;;;;0.00;0.00;;;;;;;1.24;100.00;100324.63;10449921;28;20013;-68
2021/12/08 18:23:21;;;;;;;0.10;0.10;;;;;;;1.25;100.00;100329.78;10400770;28;20017;-68
2021/12/08 18:28:22;;;;;;;0.00;0.00;;;;;;;1.23;100.00;100339.53;10404602;28;20415;-68
2021/12/08 18:33:26;;;;;;;0.00;0.00;;;;;;;1.25;100.00;100342.88;10409684;28;20107;-68
2021/12/08 18:38:32;;;;;;;0.00;0.00;;;;;;;1.27;100.00;100338.34;10406612;28;20030;-68
2021/12/08 18:43:35;;;;;;;0.00;0.00;;;;;;;1.26;100.00;100352.41;10408909;28;20083;-68
2021/12/08 18:48:38;;;;;;;0.00;0.00;;;;;;;1.25;100.00;100353.38;10390191;28;20021;-68
2021/12/08 18:53:41;;;;;;;0.00;0.00;;;;;;;1.23;100.00;100349.19;10420673;28;20021;-68
2021/12/08 18:58:42;;;;;;;0.00;0.00;;;;;;;1.18;100.00;100349.50;10392854;28;20044;-68
2021/12/08 19:03:43;;;;;;;0.00;0.00;;;;;;;1.13;100.00;100357.72;10407795;28;20029;-68
2021/12/08 19:08:45;;;;;;;0.10;0.10;;;;;;;1.10;100.00;100362.34;10415923;28;20024;-68
2021/12/08 19:13:46;;;;;;;0.08;0.08;;;;;;;1.04;100.00;100363.59;10432530;28;20472;-68
2021/12/08 19:18:46;;;;;;;0.00;0.00;;;;;;;1.01;100.00;100357.75;10448590;28;20028;-68
2021/12/08 19:23:47;;;;;;;0.00;0.00;;;;;;;0.95;100.00;100355.56;10440474;28;20029;-68
2021/12/08 19:28:49;;;;;;;0.00;0.00;;;;;;;0.90;100.00;100367.22;10448003;28;20021;-68
2021/12/08 19:33:56;;;;;;;0.00;0.00;;;;;;;0.85;100.00;100374.56;10426180;28;20029;-68
2021/12/08 19:38:57;;;;;;;0.10;0.10;;;;;;;0.79;100.00;100379.41;10409829;28;20108;-68
2021/12/08 19:43:57;;;;;;;0.00;0.00;;;;;;;0.76;100.00;100382.25;10409097;28;20013;-68
2021/12/08 19:48:58;;;;;;;0.00;0.00;;;;;;;0.74;100.00;100374.47;10410605;28;20017;-68
2021/12/08 19:53:59;;;;;;;0.00;0.00;;;;;;;0.71;100.00;100366.84;10449189;23;20470;-71
2021/12/08 19:58:59;;;;;;;0.03;0.03;;;;;;;0.64;100.00;100369.06;10439539;28;20025;-70
2021/12/08 20:04:00;;;;;;;0.08;0.08;;;;;;;0.59;100.00;100378.19;10427811;28;20025;-69
2021/12/08 20:09:00;;;;;;;0.10;0.10;;;;;;;0.52;100.00;100376.91;10442571;28;20036;-70
2021/12/08 20:14:04;;;;;;;0.00;0.00;;;;;;;0.51;100.00;100370.00;10450467;28;20036;-68
2021/12/08 20:19:05;;;;;;;0.03;0.03;;;;;;;0.47;100.00;100384.25;10453517;28;20476;-68
2021/12/08 20:24:05;;;;;;;0.10;0.10;;;;;;;0.43;100.00;100383.63;10438570;28;20035;-68
2021/12/08 20:29:06;;;;;;;0.00;0.00;;;;;;;0.38;100.00;100391.81;10412116;28;20017;-68
2021/12/08 20:34:07;;;;;;;0.00;0.00;;;;;;;0.34;100.00;100403.44;10412784;28;20476;-68
2021/12/08 20:39:07;;;;;;;0.00;0.00;;;;;;;0.32;100.00;100407.09;10425459;28;20029;-68
2021/12/08 20:44:09;;;;;;;0.08;0.08;;;;;;;0.29;100.00;100416.03;10453460;28;20024;-67
2021/12/08 20:49:09;;;;;;;0.10;0.10;;;;;;;0.28;100.00;100423.97;10452923;28;20013;-68
2021/12/08 20:54:10;;;;;;;0.00;0.00;;;;;;;0.28;100.00;100416.94;10445284;28;20024;-67
2021/12/08 20:59:11;;;;;;;0.10;0.10;;;;;;;0.26;100.00;100421.44;10422341;28;20037;-67
2021/12/08 21:04:11;;;;;;;0.10;0.10;;;;;;;0.26;100.00;100413.56;10420035;28;20025;-67
2021/12/08 21:09:12;;;;;;;0.00;0.00;;;;;;;0.23;100.00;100429.50;10435966;28;20024;-68
2021/12/08 21:14:14;;;;;;;0.00;0.00;;;;;;;0.18;100.00;100432.44;10452571;28;20107;-68
2021/12/08 21:19:14;;;;;;;0.00;0.00;;;;;;;0.16;100.00;100428.25;10437860;28;20031;-67
2021/12/08 21:24:15;;;;;;;0.00;0.00;;;;;;;0.13;100.00;100447.63;10429587;28;20471;-68
2021/12/08 21:29:16;;;;;;;0.00;0.00;;;;;;;0.13;100.00;100436.31;10452370;28;20024;-68
2021/12/08 21:34:16;;;;;;;0.03;0.03;;;;;;;0.13;100.00;100428.44;10421590;28;20018;-67
2021/12/08 21:39:17;;;;;;;0.00;0.00;;;;;;;0.13;100.00;100433.69;10415541;28;20017;-68
2021/12/08 21:44:17;;;;;;;0.10;0.10;;;;;;;0.13;100.00;100433.69;10427476;28;20354;-67
2021/12/08 21:49:18;;;;;;;0.10;0.10;;;;;;;0.14;100.00;100424.88;10450745;28;20395;-67
2021/12/08 21:54:18;;;;;;;0.00;0.00;;;;;;;0.09;100.00;100422.59;10440243;28;20068;-67
2021/12/08 21:59:19;;;;;;;0.08;0.08;;;;;;;0.05;100.00;100422.88;10443796;28;20391;-67
2021/12/08 22:04:19;;;;;;;0.10;0.10;;;;;;;-0.04;100.00;100412.06;10410375;28;20018;-67
2021/12/08 22:09:19;;;;;;;0.00;0.00;;;;;;;-0.09;100.00;100424.66;10418424;28;20072;-67
2021/12/08 22:14:20;;;;;;;0.00;0.00;;;;;;;-0.15;100.00;100429.41;10420608;28;20052;-67
2021/12/08 22:19:20;;;;;;;0.00;0.00;;;;;;;-0.19;100.00;100434.03;10447909;28;20082;-68
2021/12/08 22:24:21;;;;;;;0.10;0.10;;;;;;;-0.22;100.00;100430.78;10441265;28;20108;-68
2021/12/08 22:29:21;;;;;;;0.00;0.00;;;;;;;-0.21;100.00;100441.13;10445242;28;20290;-67
2021/12/08 22:34:22;;;;;;;0.05;0.05;;;;;;;-0.22;100.00;100455.16;10449599;28;20017;-67
2021/12/08 22:39:23;;;;;;;0.00;0.00;;;;;;;-0.23;100.00;100458.72;10432641;28;20036;-67
2021/12/08 22:44:23;;;;;;;0.00;0.00;;;;;;;-0.13;100.00;100472.88;10434979;28;20469;-67
2021/12/08 22:49:25;;;;;;;0.05;0.05;;;;;;;-0.06;100.00;100471.56;10425670;28;20017;-68
2021/12/08 22:54:26;;;;;;;0.00;0.00;;;;;;;0.01;100.00;100468.56;10431106;28;20029;-68
2021/12/08 22:59:26;;;;;;;0.00;0.00;;;;;;;0.07;100.00;100476.84;10423845;28;20025;-67
2021/12/08 23:04:26;;;;;;;0.00;0.00;;;;;;;0.12;100.00;100481.78;10429592;28;20017;-68
2021/12/08 23:09:27;;;;;;;0.10;0.10;;;;;;;0.19;100.00;100480.44;10448935;28;20252;-67
2021/12/08 23:14:28;;;;;;;0.10;0.10;;;;;;;0.25;100.00;100485.25;10425278;28;20472;-67
2021/12/08 23:19:32;;;;;;;0.10;0.10;;;;;;;0.31;100.00;100486.63;10407463;28;20292;-67
2021/12/08 23:24:32;;;;;;;0.10;0.10;;;;;;;0.32;100.00;100478.69;10444134;28;20074;-68
2021/12/08 23:29:33;;;;;;;0.00;0.00;;;;;;;0.34;100.00;100479.41;10434387;28;20074;-68
2021/12/08 23:34:39;;;;;;;0.07;0.07;;;;;;;0.36;100.00;100476.69;10456265;28;20271;-68
2021/12/08 23:39:40;;;;;;;0.00;0.00;;;;;;;0.37;100.00;100473.97;10430227;28;20762;-68
2021/12/08 23:44:42;;;;;;;0.00;0.00;;;;;;;0.40;100.00;100484.22;10425987;28;20067;-68
2021/12/08 23:49:42;;;;;;;0.10;0.10;;;;;;;0.44;100.00;100501.44;10414261;28;20025;-68
2021/12/08 23:54:43;;;;;;;0.08;0.08;;;;;;;0.45;100.00;100492.63;10434417;28;20032;-68
2021/12/08 23:59:46;;;;;;;0.10;0.10;;;;;;;0.51;100.00;100501.03;10454854;28;20052;-68
